createdAt,value
2022-12-19T00:00:34.959Z,18.92
2022-12-19T00:03:02.686Z,18.35
2022-12-19T00:05:30.253Z,16.95
2022-12-19T00:07:57.996Z,18.70
2022-12-19T00:10:26.922Z,18.65
2022-12-19T00:12:54.834Z,19.70
2022-12-19T00:15:22.343Z,18.83
2022-12-19T00:17:49.832Z,21.27
2022-12-19T00:20:18.650Z,19.10
2022-12-19T00:22:46.372Z,18.67
2022-12-19T00:25:13.806Z,18.40
2022-12-19T00:27:42.113Z,19.58
2022-12-19T00:30:10.790Z,17.55
2022-12-19T00:32:38.622Z,18.13
2022-12-19T00:35:06.481Z,18.83
2022-12-19T00:37:34.948Z,18.15
2022-12-19T00:40:04.639Z,18.98
2022-12-19T00:42:32.221Z,19.77
2022-12-19T00:44:59.628Z,18.90
2022-12-19T00:47:27.193Z,20.25
2022-12-19T00:49:54.595Z,18.98
2022-12-19T00:52:22.163Z,19.52
2022-12-19T00:54:51.022Z,19.77
2022-12-19T00:57:20.221Z,20.00
2022-12-19T00:59:47.898Z,20.15
2022-12-19T01:02:15.509Z,20.77
2022-12-19T01:04:43.291Z,19.17
2022-12-19T01:07:13.193Z,18.15
2022-12-19T01:09:40.822Z,18.13
2022-12-19T01:12:30.302Z,17.80
2022-12-19T01:15:04.435Z,18.17
2022-12-19T01:17:38.685Z,17.30
2022-12-19T01:20:29.227Z,19.35
2022-12-19T01:23:00.421Z,18.58
2022-12-19T01:25:28.574Z,19.35
2022-12-19T01:27:56.939Z,19.10
2022-12-19T01:30:24.673Z,18.02
2022-12-19T01:32:53.560Z,19.83
2022-12-19T01:35:22.209Z,18.65
2022-12-19T01:37:55.881Z,19.48
2022-12-19T01:40:35.111Z,21.27
2022-12-19T01:43:05.061Z,19.27
2022-12-19T01:45:35.929Z,19.40
2022-12-19T01:48:12.577Z,19.87
2022-12-19T01:51:01.802Z,19.23
2022-12-19T01:53:48.655Z,17.75
2022-12-19T01:56:24.700Z,18.17
2022-12-19T01:59:06.521Z,17.95
2022-12-19T02:01:48.546Z,16.08
2022-12-19T02:04:24.358Z,17.02
2022-12-19T02:06:57.653Z,17.25
2022-12-19T02:09:25.459Z,18.73
2022-12-19T02:11:53.964Z,15.77
2022-12-19T02:14:22.185Z,18.67
2022-12-19T02:17:18.260Z,15.93
2022-12-19T02:19:58.088Z,17.02
2022-12-19T02:22:58.867Z,17.25
2022-12-19T02:25:48.041Z,16.75
2022-12-19T02:28:22.798Z,15.75
2022-12-19T02:31:20.352Z,15.13
2022-12-19T02:33:58.895Z,16.25
2022-12-19T02:36:41.919Z,15.00
2022-12-19T02:39:18.104Z,16.63
2022-12-19T02:41:51.806Z,15.82
2022-12-19T02:44:29.527Z,15.57
2022-12-19T02:47:00.499Z,14.73
2022-12-19T02:49:30.965Z,17.35
2022-12-19T02:52:11.466Z,15.50
2022-12-19T02:54:45.146Z,15.13
2022-12-19T02:57:28.146Z,14.80
2022-12-19T03:00:08.590Z,16.10
2022-12-19T03:03:03.578Z,15.05
2022-12-19T03:05:34.479Z,16.15
2022-12-19T03:09:00.628Z,15.50
2022-12-19T03:11:36.276Z,15.45
2022-12-19T03:14:12.465Z,15.43
2022-12-19T03:16:41.462Z,14.20
2022-12-19T03:19:12.336Z,15.25
2022-12-19T03:21:45.445Z,15.90
2022-12-19T03:24:14.988Z,15.45
2022-12-19T03:26:50.585Z,14.52
2022-12-19T03:29:24.713Z,14.63
2022-12-19T03:31:53.199Z,14.10
2022-12-19T03:34:45.183Z,14.93
2022-12-19T03:37:20.861Z,14.55
2022-12-19T03:39:54.657Z,14.95
2022-12-19T03:42:44.433Z,15.10
2022-12-19T03:45:15.742Z,14.57
2022-12-19T03:47:54.284Z,14.90
2022-12-19T03:50:26.089Z,15.10
2022-12-19T03:53:12.174Z,15.98
2022-12-19T03:55:53.710Z,15.68
2022-12-19T03:58:45.796Z,16.52
2022-12-19T04:01:13.919Z,15.38
2022-12-19T04:03:41.481Z,15.60
2022-12-19T04:06:10.153Z,16.85
2022-12-19T04:08:38.192Z,16.85
2022-12-19T04:11:11.141Z,16.10
2022-12-19T04:13:44.663Z,17.48
2022-12-19T04:16:38.783Z,16.23
2022-12-19T04:19:16.988Z,18.77
2022-12-19T04:21:52.791Z,16.38
2022-12-19T04:24:28.200Z,16.33
2022-12-19T04:26:57.701Z,16.02
2022-12-19T04:29:28.748Z,16.52
2022-12-19T04:31:56.987Z,16.45
2022-12-19T04:34:24.418Z,17.25
2022-12-19T04:36:51.908Z,15.60
2022-12-19T04:39:19.489Z,16.42
2022-12-19T04:41:46.990Z,17.25
2022-12-19T04:44:14.497Z,17.10
2022-12-19T04:46:42.162Z,16.90
2022-12-19T04:49:09.676Z,16.17
2022-12-19T04:51:37.220Z,16.77
2022-12-19T04:54:04.695Z,16.67
2022-12-19T04:56:32.375Z,17.05
2022-12-19T04:59:00.559Z,18.00
2022-12-19T05:01:28.209Z,17.52
2022-12-19T05:03:59.917Z,15.77
2022-12-19T05:06:30.445Z,16.83
2022-12-19T05:10:06.474Z,16.95
2022-12-19T05:12:34.163Z,16.40
2022-12-19T05:15:01.811Z,15.73
2022-12-19T05:17:29.363Z,16.40
2022-12-19T05:19:56.927Z,16.13
2022-12-19T05:22:27.519Z,17.50
2022-12-19T05:24:55.068Z,18.60
2022-12-19T05:27:22.714Z,18.85
2022-12-19T05:29:50.208Z,18.67
2022-12-19T05:32:18.011Z,18.98
2022-12-19T05:34:45.558Z,19.13
2022-12-19T05:37:13.039Z,20.02
2022-12-19T05:39:40.678Z,18.90
2022-12-19T05:42:12.193Z,21.27
2022-12-19T05:44:40.137Z,20.70
2022-12-19T05:47:08.177Z,21.50
2022-12-19T05:49:35.746Z,19.90
2022-12-19T05:52:03.183Z,20.40
2022-12-19T05:54:30.748Z,21.05
2022-12-19T05:56:58.368Z,19.73
2022-12-19T05:59:27.344Z,21.58
2022-12-19T06:01:54.871Z,19.15
2022-12-19T06:04:22.501Z,20.25
2022-12-19T06:06:49.963Z,19.38
2022-12-19T06:09:17.609Z,19.85
2022-12-19T06:11:45.040Z,19.13
2022-12-19T06:14:13.690Z,20.98
2022-12-19T06:16:41.207Z,20.58
2022-12-19T06:19:08.895Z,20.08
2022-12-19T06:21:39.767Z,20.75
2022-12-19T06:24:13.153Z,22.08
2022-12-19T06:26:40.799Z,20.92
2022-12-19T06:29:08.346Z,21.08
2022-12-19T06:31:35.881Z,20.85
2022-12-19T06:34:03.452Z,21.15
2022-12-19T06:36:31.846Z,21.45
2022-12-19T06:38:59.455Z,21.85
2022-12-19T06:41:46.387Z,21.98
2022-12-19T06:44:15.982Z,21.40
2022-12-19T06:46:44.135Z,21.83
2022-12-19T06:49:12.165Z,22.13
2022-12-19T06:51:40.165Z,22.67
2022-12-19T06:54:07.739Z,22.13
2022-12-19T06:56:37.252Z,20.83
2022-12-19T06:59:06.172Z,21.90
2022-12-19T07:01:58.315Z,22.02
2022-12-19T07:04:40.418Z,21.50
2022-12-19T07:07:08.224Z,20.85
2022-12-19T07:09:35.705Z,20.77
2022-12-19T07:12:03.497Z,19.98
2022-12-19T07:14:33.862Z,21.38
2022-12-19T07:17:03.191Z,20.48
2022-12-19T07:19:33.040Z,20.90
2022-12-19T07:22:02.427Z,19.40
2022-12-19T07:24:30.506Z,20.42
2022-12-19T07:26:58.667Z,22.05
2022-12-19T07:29:26.878Z,21.50
2022-12-19T07:31:54.659Z,20.67
2022-12-19T07:34:22.254Z,21.70
2022-12-19T07:36:52.447Z,21.17
2022-12-19T07:39:19.906Z,21.15
2022-12-19T07:41:47.642Z,19.45
2022-12-19T07:44:16.683Z,21.35
2022-12-19T07:46:45.243Z,19.17
2022-12-19T07:49:14.226Z,21.13
2022-12-19T07:51:43.377Z,20.05
2022-12-19T07:54:10.989Z,21.40
2022-12-19T07:56:38.466Z,20.85
2022-12-19T07:59:05.867Z,19.67
2022-12-19T08:01:33.510Z,21.13
2022-12-19T08:04:01.226Z,20.27
2022-12-19T08:06:28.827Z,20.60
2022-12-19T08:08:57.287Z,20.65
2022-12-19T08:11:29.579Z,21.25
2022-12-19T08:13:58.205Z,21.38
2022-12-19T08:16:27.759Z,22.05
2022-12-19T08:18:55.929Z,22.15
2022-12-19T08:21:24.018Z,22.25
2022-12-19T08:23:52.978Z,22.52
2022-12-19T08:26:25.384Z,21.60
2022-12-19T08:28:55.432Z,21.85
2022-12-19T08:31:25.652Z,22.45
2022-12-19T08:33:55.100Z,22.02
2022-12-19T08:36:23.574Z,22.50
2022-12-19T08:38:51.193Z,21.92
2022-12-19T08:41:19.276Z,21.67
2022-12-19T08:43:51.823Z,21.90
2022-12-19T08:46:20.694Z,22.27
2022-12-19T08:48:48.307Z,22.30
2022-12-19T08:51:17.298Z,22.35
2022-12-19T08:53:46.460Z,24.40
2022-12-19T08:56:20.194Z,23.13
2022-12-19T08:58:48.846Z,21.95
2022-12-19T09:01:19.459Z,24.73
2022-12-19T09:04:22.583Z,23.40
2022-12-19T09:06:35.352Z,24.33
2022-12-19T09:09:04.140Z,23.55
2022-12-19T09:11:31.849Z,25.95
2022-12-19T09:13:59.599Z,24.85
2022-12-19T09:16:28.976Z,24.80
2022-12-19T09:18:58.980Z,25.08
2022-12-19T09:21:30.530Z,25.20
2022-12-19T09:24:07.095Z,25.15
2022-12-19T09:26:36.033Z,24.63
2022-12-19T09:29:08.711Z,23.17
2022-12-19T09:31:55.465Z,24.35
2022-12-19T09:34:29.974Z,23.42
2022-12-19T09:37:16.927Z,23.85
2022-12-19T09:39:46.718Z,25.05
2022-12-19T09:42:27.704Z,25.02
2022-12-19T09:45:29.928Z,23.60
2022-12-19T09:48:01.633Z,26.13
2022-12-19T09:50:54.645Z,25.70
2022-12-19T09:53:33.045Z,26.88
2022-12-19T09:56:03.052Z,25.73
2022-12-19T09:58:41.295Z,25.60
2022-12-19T10:01:19.555Z,25.92
2022-12-19T10:04:12.154Z,23.83
2022-12-19T10:07:11.539Z,24.63
2022-12-19T10:11:27.829Z,23.90
2022-12-19T10:12:44.543Z,24.35
2022-12-19T10:15:59.814Z,24.02
2022-12-19T10:18:34.137Z,24.80
2022-12-19T10:21:09.677Z,26.05
2022-12-19T10:23:55.912Z,25.38
2022-12-19T10:26:35.382Z,25.48
2022-12-19T10:29:05.773Z,24.30
2022-12-19T10:31:53.527Z,25.10
2022-12-19T10:34:32.699Z,25.73
2022-12-19T10:37:34.302Z,25.70
2022-12-19T10:40:27.799Z,25.20
2022-12-19T10:43:15.265Z,25.92
2022-12-19T10:45:51.995Z,25.05
2022-12-19T10:48:30.783Z,26.13
2022-12-19T10:51:02.070Z,25.00
2022-12-19T10:53:34.463Z,27.05
2022-12-19T10:56:13.215Z,26.88
2022-12-19T10:58:43.727Z,26.45
2022-12-19T11:01:15.780Z,26.33
2022-12-19T11:03:48.316Z,27.63
2022-12-19T11:06:51.619Z,27.67
2022-12-19T11:09:30.960Z,25.15
2022-12-19T11:15:21.803Z,26.48
2022-12-19T11:20:26.306Z,28.52
2022-12-19T11:22:14.546Z,26.35
2022-12-19T11:30:05.066Z,26.83
2022-12-19T11:30:25.641Z,26.98
2022-12-19T11:30:45.505Z,26.48
2022-12-19T11:32:45.020Z,27.85
2022-12-19T11:35:36.666Z,27.50
2022-12-19T11:38:08.509Z,27.98
2022-12-19T11:40:57.846Z,28.23
2022-12-19T11:43:43.749Z,26.92
2022-12-19T11:46:22.031Z,28.25
2022-12-19T11:49:03.050Z,27.10
2022-12-19T11:51:42.772Z,28.13
2022-12-19T11:54:24.208Z,28.15
2022-12-19T11:56:51.790Z,26.85
2022-12-19T11:59:24.731Z,27.15
2022-12-19T12:02:20.167Z,26.42
2022-12-19T12:05:24.403Z,26.05
2022-12-19T12:09:59.334Z,27.00
2022-12-19T12:20:25.278Z,26.05
2022-12-19T12:21:05.474Z,26.83
2022-12-19T12:22:00.704Z,26.08
2022-12-19T12:31:17.848Z,26.27
2022-12-19T12:31:45.834Z,23.67
2022-12-19T12:32:06.048Z,25.02
2022-12-19T12:35:14.335Z,24.67
2022-12-19T12:35:50.922Z,24.02
2022-12-19T12:38:38.023Z,23.20
2022-12-19T12:41:48.244Z,26.30
2022-12-19T12:44:15.941Z,24.50
2022-12-19T12:46:54.892Z,22.90
2022-12-19T12:49:33.775Z,25.00
2022-12-19T12:52:03.443Z,24.13
2022-12-19T12:54:37.893Z,24.92
2022-12-19T12:57:05.957Z,25.15
2022-12-19T12:59:33.793Z,25.02
2022-12-19T13:02:24.689Z,24.95
2022-12-19T13:05:01.218Z,26.20
2022-12-19T13:07:51.342Z,24.25
2022-12-19T13:10:24.421Z,24.50
2022-12-19T13:13:02.689Z,25.55
2022-12-19T13:15:32.207Z,25.90
2022-12-19T13:18:38.191Z,24.98
2022-12-19T13:21:08.238Z,26.35
2022-12-19T13:23:39.055Z,25.10
2022-12-19T13:26:21.158Z,26.05
2022-12-19T13:28:48.961Z,26.15
2022-12-19T13:31:21.904Z,25.98
2022-12-19T13:33:56.016Z,26.92
2022-12-19T13:39:58.313Z,26.10
2022-12-19T13:40:32.553Z,26.40
2022-12-19T13:43:34.641Z,25.40
2022-12-19T13:46:32.379Z,27.02
2022-12-19T13:49:06.282Z,26.65
2022-12-19T13:51:57.166Z,28.20
2022-12-19T13:54:33.092Z,26.83
2022-12-19T13:57:08.025Z,25.52
2022-12-19T13:59:39.265Z,25.67
2022-12-19T14:02:16.082Z,26.27
2022-12-19T14:04:45.562Z,24.40
2022-12-19T14:07:34.813Z,25.75
2022-12-19T14:11:29.733Z,24.95
2022-12-19T14:13:45.140Z,23.65
2022-12-19T14:16:04.448Z,24.23
2022-12-19T14:18:44.868Z,26.00
2022-12-19T14:22:11.645Z,25.67
2022-12-19T14:24:20.932Z,25.67
2022-12-19T14:28:23.836Z,23.67
2022-12-19T14:30:29.902Z,24.08
2022-12-19T14:33:44.432Z,25.33
2022-12-19T14:36:10.440Z,25.02
2022-12-19T14:39:20.965Z,24.37
2022-12-19T14:42:03.219Z,24.55
2022-12-19T14:52:11.542Z,24.88
2022-12-19T14:53:51.615Z,23.80
2022-12-19T14:54:29.064Z,23.92
2022-12-19T14:54:41.627Z,24.50
2022-12-19T14:59:17.660Z,25.08
2022-12-19T15:02:06.379Z,23.02
2022-12-19T15:04:54.851Z,23.25
2022-12-19T15:07:28.942Z,22.85
2022-12-19T15:14:57.724Z,22.20
2022-12-19T15:16:30.080Z,24.77
2022-12-19T15:19:00.428Z,25.25
2022-12-19T15:21:32.293Z,25.25
2022-12-19T15:24:00.018Z,24.98
2022-12-19T15:26:36.341Z,25.83
2022-12-19T15:29:14.099Z,25.48
2022-12-19T15:31:45.832Z,24.67
2022-12-19T15:34:48.299Z,22.77
2022-12-19T15:37:15.901Z,24.27
2022-12-19T15:39:44.788Z,24.95
2022-12-19T15:42:31.438Z,24.08
2022-12-19T15:45:01.243Z,23.77
2022-12-19T15:47:37.005Z,23.67
2022-12-19T15:50:23.360Z,25.15
2022-12-19T15:52:55.073Z,23.75
2022-12-19T15:55:25.388Z,25.73
2022-12-19T15:57:58.670Z,25.52
2022-12-19T16:00:29.561Z,24.17
2022-12-19T16:03:23.195Z,23.42
2022-12-19T16:05:46.058Z,24.30
2022-12-19T16:08:16.129Z,23.92
2022-12-19T16:10:46.198Z,22.67
2022-12-19T16:13:21.355Z,22.52
2022-12-19T16:15:49.731Z,22.42
2022-12-19T16:18:19.979Z,22.38
2022-12-19T16:20:48.349Z,23.30
2022-12-19T16:23:16.169Z,25.30
2022-12-19T16:25:47.477Z,23.48
2022-12-19T16:28:16.767Z,25.75
2022-12-19T16:30:44.736Z,26.10
2022-12-19T16:33:20.228Z,25.25
2022-12-19T16:36:06.132Z,24.52
2022-12-19T16:38:34.848Z,24.90
2022-12-19T16:41:02.747Z,24.02
2022-12-19T16:43:33.960Z,25.30
2022-12-19T16:46:04.227Z,24.42
2022-12-19T16:48:32.152Z,24.92
2022-12-19T16:51:00.042Z,24.80
2022-12-19T16:53:27.975Z,25.05
2022-12-19T16:55:57.545Z,25.58
2022-12-19T16:58:27.494Z,26.00
2022-12-19T17:00:56.160Z,26.13
2022-12-19T17:03:32.820Z,25.35
2022-12-19T17:06:01.398Z,25.92
2022-12-19T17:08:28.866Z,24.77
2022-12-19T17:10:56.608Z,25.85
2022-12-19T17:13:25.038Z,23.92
2022-12-19T17:15:56.744Z,24.80
2022-12-19T17:18:24.847Z,23.38
2022-12-19T17:20:52.258Z,23.90
2022-12-19T17:23:24.429Z,24.90
2022-12-19T17:25:54.539Z,24.50
2022-12-19T17:28:22.755Z,25.17
2022-12-19T17:30:57.631Z,24.00
2022-12-19T17:33:33.147Z,23.92
2022-12-19T17:36:02.041Z,25.38
2022-12-19T17:38:29.547Z,25.58
2022-12-19T17:40:57.272Z,27.70
2022-12-19T17:43:25.127Z,27.05
2022-12-19T17:45:52.850Z,27.13
2022-12-19T17:48:28.150Z,27.90
2022-12-19T17:50:56.505Z,27.40
2022-12-19T17:53:24.754Z,26.95
2022-12-19T17:55:52.501Z,25.70
2022-12-19T17:58:19.942Z,26.92
2022-12-19T18:00:48.063Z,27.30
2022-12-19T18:03:26.428Z,26.63
2022-12-19T18:05:55.692Z,26.88
2022-12-19T18:08:32.447Z,27.48
2022-12-19T18:11:02.183Z,25.42
2022-12-19T18:13:31.281Z,26.60
2022-12-19T18:16:01.343Z,26.23
2022-12-19T18:18:35.659Z,25.05
2022-12-19T18:21:04.433Z,24.52
2022-12-19T18:23:32.364Z,24.02
2022-12-19T18:26:02.206Z,24.67
2022-12-19T18:28:30.857Z,24.17
2022-12-19T18:31:22.233Z,26.13
2022-12-19T18:33:50.464Z,23.85
2022-12-19T18:36:21.001Z,24.45
2022-12-19T18:38:49.553Z,25.52
2022-12-19T18:41:18.197Z,25.92
2022-12-19T18:43:46.196Z,25.10
2022-12-19T18:46:16.378Z,26.42
2022-12-19T18:48:45.271Z,26.38
2022-12-19T18:51:18.963Z,25.90
2022-12-19T18:53:48.758Z,25.55
2022-12-19T18:56:16.461Z,23.80
2022-12-19T18:58:43.962Z,22.48
2022-12-19T19:01:15.872Z,22.73
2022-12-19T19:03:51.965Z,21.67
2022-12-19T19:06:22.806Z,22.33
2022-12-19T19:08:53.432Z,21.63
2022-12-19T19:11:33.548Z,22.03
2022-12-19T19:14:01.096Z,20.90
2022-12-19T19:16:28.850Z,22.40
2022-12-19T19:18:58.727Z,22.33
2022-12-19T19:21:32.634Z,22.30
2022-12-19T19:24:00.157Z,23.38
2022-12-19T19:26:27.711Z,24.38
2022-12-19T19:28:55.336Z,22.40
2022-12-19T19:31:26.685Z,23.15
2022-12-19T19:34:00.777Z,23.05
2022-12-19T19:36:31.209Z,24.45
2022-12-19T19:38:58.834Z,24.75
2022-12-19T19:41:30.301Z,25.58
2022-12-19T19:43:59.889Z,24.27
2022-12-19T19:46:28.168Z,24.45
2022-12-19T19:48:57.663Z,24.77
2022-12-19T19:51:25.442Z,24.45
2022-12-19T19:53:53.002Z,23.90
2022-12-19T19:56:20.522Z,24.75
2022-12-19T19:58:48.030Z,25.70
2022-12-19T20:01:15.626Z,24.38
2022-12-19T20:03:45.226Z,26.95
2022-12-19T20:06:12.972Z,25.75
2022-12-19T20:08:41.137Z,27.95
2022-12-19T20:11:09.588Z,27.40
2022-12-19T20:13:37.779Z,28.58
2022-12-19T20:16:08.741Z,29.13
2022-12-19T20:18:37.537Z,29.98
2022-12-19T20:21:13.449Z,29.67
2022-12-19T20:23:43.104Z,29.02
2022-12-19T20:26:16.616Z,30.95
2022-12-19T20:31:19.762Z,30.70
2022-12-19T20:33:48.712Z,29.42
2022-12-19T20:36:16.882Z,32.33
2022-12-19T20:38:44.957Z,30.75
2022-12-19T20:41:13.002Z,28.50
2022-12-19T20:43:41.526Z,28.95
2022-12-19T20:46:14.993Z,29.80
2022-12-19T20:51:10.398Z,29.55
2022-12-19T20:53:39.148Z,29.60
2022-12-19T20:56:07.962Z,30.17
2022-12-19T20:58:37.287Z,30.02
2022-12-19T21:01:11.314Z,29.67
2022-12-19T21:03:39.744Z,31.27
2022-12-19T21:06:08.887Z,32.45
2022-12-19T21:08:36.825Z,32.75
2022-12-19T21:11:06.154Z,32.65
2022-12-19T21:13:34.545Z,33.47
2022-12-19T21:16:04.461Z,33.65
2022-12-19T21:18:32.096Z,33.80
2022-12-19T21:21:00.396Z,31.50
2022-12-19T21:23:28.782Z,33.83
2022-12-19T21:26:01.707Z,32.42
2022-12-19T21:28:29.589Z,33.97
2022-12-19T21:31:03.250Z,32.78
2022-12-19T21:33:31.193Z,30.80
2022-12-19T21:36:05.577Z,30.27
2022-12-19T21:38:33.126Z,30.35
2022-12-19T21:41:06.008Z,32.13
2022-12-19T21:43:34.610Z,30.15
2022-12-19T21:46:12.702Z,29.17
2022-12-19T21:48:43.212Z,28.35
2022-12-19T21:51:11.955Z,28.40
2022-12-19T21:53:40.000Z,28.42
2022-12-19T21:56:19.914Z,28.40
2022-12-19T21:58:47.412Z,29.17
2022-12-19T22:01:15.711Z,28.42
2022-12-19T22:03:43.713Z,28.80
2022-12-19T22:06:27.383Z,29.42
2022-12-19T22:08:56.100Z,28.35
2022-12-19T22:11:24.307Z,28.13
2022-12-19T22:13:52.106Z,27.70
2022-12-19T22:16:19.745Z,27.25
2022-12-19T22:18:47.626Z,27.73
2022-12-19T22:21:15.757Z,26.50
2022-12-19T22:23:43.515Z,29.10
2022-12-19T22:26:17.669Z,26.92
2022-12-19T22:28:47.497Z,26.33
2022-12-19T22:31:23.277Z,27.83
2022-12-19T22:33:52.982Z,27.10
2022-12-19T22:36:27.641Z,29.02
2022-12-19T22:38:58.191Z,27.50
2022-12-19T22:41:26.917Z,26.58
2022-12-19T22:43:55.097Z,26.73
2022-12-19T22:46:27.970Z,26.58
2022-12-19T22:48:57.625Z,26.05
2022-12-19T22:51:26.641Z,27.85
2022-12-19T22:53:54.844Z,27.38
2022-12-19T22:56:25.311Z,26.73
2022-12-19T22:58:55.648Z,27.33
2022-12-19T23:01:25.526Z,28.05
2022-12-19T23:03:55.943Z,27.58
2022-12-19T23:06:26.022Z,26.55
2022-12-19T23:08:54.117Z,25.98
2022-12-19T23:11:29.146Z,25.02
2022-12-19T23:13:57.055Z,27.90
2022-12-19T23:16:24.593Z,26.55
2022-12-19T23:18:52.118Z,26.45
2022-12-19T23:21:21.955Z,27.17
2022-12-19T23:23:52.338Z,26.42
2022-12-19T23:26:23.457Z,26.85
2022-12-19T23:28:56.742Z,26.17
2022-12-19T23:31:25.216Z,26.10
2022-12-19T23:33:53.687Z,25.90
2022-12-19T23:36:44.981Z,26.83
2022-12-19T23:39:11.073Z,26.80
2022-12-19T23:41:39.187Z,26.85
2022-12-19T23:44:08.009Z,25.92
2022-12-19T23:46:35.823Z,25.92
2022-12-19T23:49:03.910Z,26.20
2022-12-19T23:51:31.656Z,27.67
2022-12-19T23:53:59.252Z,27.38
2022-12-19T23:56:29.990Z,26.40
2022-12-19T23:58:58.710Z,26.92
